Time,TemperatureF,DewpointF,PressureIn,WindDirection,WindDirectionDegrees,WindSpeedMPH,WindSpeedGustMPH,Humidity,HourlyPrecipIn,Conditions,Clouds,dailyrainin,SoftwareType,DateUTC
2013-01-18 00:00:00,50.0,47.0,-100.00,NW,326,3.0,-999.0,91,0.00,,,-99.99,,2013-01-18 06:00:00,
2013-01-18 00:22:00,50.0,47.0,-100.00,NW,326,3.0,-999.0,91,0.00,,,-99.99,,2013-01-18 06:22:00,
2013-01-18 00:33:00,50.0,47.0,-100.00,NW,326,3.0,-999.0,91,0.00,,,-99.99,,2013-01-18 06:33:00,
2013-01-18 00:43:00,50.0,47.0,-100.00,NW,326,3.0,-999.0,91,0.00,,,-99.99,,2013-01-18 06:43:00,
2013-01-18 00:53:00,50.0,47.0,-100.00,NW,326,3.0,-999.0,91,0.00,,,-99.99,,2013-01-18 06:53:00,
2013-01-18 01:00:00,50.0,47.0,-100.00,NW,315,2.0,-999.0,91,0.00,,,-99.99,,2013-01-18 07:00:00,
2013-01-18 01:22:00,50.0,47.0,-100.00,NW,315,2.0,-999.0,91,0.00,,,-99.99,,2013-01-18 07:22:00,
2013-01-18 01:32:00,50.0,47.0,-100.00,NW,315,2.0,-999.0,91,0.00,,,-99.99,,2013-01-18 07:32:00,
2013-01-18 01:42:00,50.0,47.0,-100.00,NW,315,2.0,-999.0,91,0.00,,,-99.99,,2013-01-18 07:42:00,
2013-01-18 01:52:00,50.0,47.0,-100.00,NW,315,2.0,-999.0,91,0.00,,,-99.99,,2013-01-18 07:52:00,
2013-01-18 02:00:00,48.0,45.0,-100.00,North,349,4.0,-999.0,88,0.00,,,-99.99,,2013-01-18 08:00:00,
2013-01-18 02:22:00,48.0,45.0,-100.00,North,349,4.0,-999.0,88,0.00,,,-99.99,,2013-01-18 08:22:00,
2013-01-18 02:32:00,48.0,45.0,-100.00,North,349,4.0,-999.0,88,0.00,,,-99.99,,2013-01-18 08:32:00,
2013-01-18 02:42:00,48.0,45.0,-100.00,North,349,4.0,-999.0,88,0.00,,,-99.99,,2013-01-18 08:42:00,
2013-01-18 02:53:00,48.0,45.0,-100.00,North,349,4.0,-999.0,88,0.00,,,-99.99,,2013-01-18 08:53:00,
2013-01-18 03:00:00,48.0,43.0,-100.00,North,356,4.0,-999.0,84,0.00,,,-99.99,,2013-01-18 09:00:00,
2013-01-18 03:22:00,48.0,43.0,-100.00,North,356,4.0,-999.0,84,0.00,,,-99.99,,2013-01-18 09:22:00,
2013-01-18 03:33:00,48.0,43.0,-100.00,North,356,4.0,-999.0,84,0.00,,,-99.99,,2013-01-18 09:33:00,
2013-01-18 03:42:00,48.0,43.0,-100.00,North,356,4.0,-999.0,84,0.00,,,-99.99,,2013-01-18 09:42:00,
2013-01-18 03:53:00,48.0,43.0,-100.00,North,356,4.0,-999.0,84,0.00,,,-99.99,,2013-01-18 09:53:00,
2013-01-18 04:00:00,47.0,42.0,-100.00,North,352,6.0,-999.0,83,0.00,,,-99.99,,2013-01-18 10:00:00,
2013-01-18 04:22:00,47.0,42.0,-100.00,North,352,6.0,-999.0,83,0.00,,,-99.99,,2013-01-18 10:22:00,
2013-01-18 04:32:00,47.0,42.0,-100.00,North,352,6.0,-999.0,83,0.00,,,-99.99,,2013-01-18 10:32:00,
2013-01-18 04:42:00,47.0,42.0,-100.00,North,352,6.0,-999.0,83,0.00,,,-99.99,,2013-01-18 10:42:00,
2013-01-18 04:53:00,47.0,42.0,-100.00,North,352,6.0,-999.0,83,0.00,,,-99.99,,2013-01-18 10:53:00,
2013-01-18 05:00:00,47.0,41.0,-100.00,North,2,5.0,-999.0,80,0.00,,,-99.99,,2013-01-18 11:00:00,
2013-01-18 05:23:00,47.0,41.0,-100.00,North,2,5.0,-999.0,80,0.00,,,-99.99,,2013-01-18 11:23:00,
2013-01-18 05:32:00,47.0,41.0,-100.00,North,2,5.0,-999.0,80,0.00,,,-99.99,,2013-01-18 11:32:00,
2013-01-18 05:42:00,47.0,41.0,-100.00,North,2,5.0,-999.0,80,0.00,,,-99.99,,2013-01-18 11:42:00,
2013-01-18 05:53:00,47.0,41.0,-100.00,North,2,5.0,-999.0,80,0.00,,,-99.99,,2013-01-18 11:53:00,
2013-01-18 06:00:00,45.0,39.0,-100.00,NNE,17,9.0,-999.0,80,0.00,,,-99.99,,2013-01-18 12:00:00,
2013-01-18 06:22:00,45.0,39.0,-100.00,NNE,17,9.0,-999.0,80,0.00,,,-99.99,,2013-01-18 12:22:00,
2013-01-18 06:33:00,45.0,39.0,-100.00,NNE,17,9.0,-999.0,80,0.00,,,-99.99,,2013-01-18 12:33:00,
2013-01-18 06:43:00,45.0,39.0,-100.00,NNE,17,9.0,-999.0,80,0.00,,,-99.99,,2013-01-18 12:43:00,
2013-01-18 06:53:00,45.0,39.0,-100.00,NNE,17,9.0,-999.0,80,0.00,,,-99.99,,2013-01-18 12:53:00,
2013-01-18 07:00:00,43.0,39.0,-100.00,NNE,32,8.0,-999.0,88,0.00,,,-99.99,,2013-01-18 13:00:00,
2013-01-18 07:23:00,43.0,39.0,-100.00,NNE,32,8.0,-999.0,88,0.00,,,-99.99,,2013-01-18 13:23:00,
2013-01-18 07:33:00,43.0,39.0,-100.00,NNE,32,8.0,-999.0,88,0.00,,,-99.99,,2013-01-18 13:33:00,
2013-01-18 07:43:00,43.0,39.0,-100.00,NNE,32,8.0,-999.0,88,0.00,,,-99.99,,2013-01-18 13:43:00,
2013-01-18 07:53:00,43.0,39.0,-100.00,NNE,32,8.0,-999.0,88,0.00,,,-99.99,,2013-01-18 13:53:00,
2013-01-18 08:00:00,44.0,42.0,-100.00,NE,34,9.0,-999.0,90,0.00,,,-99.99,,2013-01-18 14:00:00,
2013-01-18 08:23:00,44.0,42.0,-100.00,NE,34,9.0,-999.0,90,0.00,,,-99.99,,2013-01-18 14:23:00,
2013-01-18 08:33:00,44.0,42.0,-100.00,NE,34,9.0,-999.0,90,0.00,,,-99.99,,2013-01-18 14:33:00,
2013-01-18 08:42:00,44.0,42.0,-100.00,NE,34,9.0,-999.0,90,0.00,,,-99.99,,2013-01-18 14:42:00,
2013-01-18 08:53:00,44.0,42.0,-100.00,NE,34,9.0,-999.0,90,0.00,,,-99.99,,2013-01-18 14:53:00,
2013-01-18 09:00:00,49.0,43.0,-100.00,NE,44,10.0,-999.0,79,0.00,,,-99.99,,2013-01-18 15:00:00,
2013-01-18 09:23:00,49.0,43.0,-100.00,NE,44,10.0,-999.0,79,0.00,,,-99.99,,2013-01-18 15:23:00,
2013-01-18 09:33:00,49.0,43.0,-100.00,NE,44,10.0,-999.0,79,0.00,,,-99.99,,2013-01-18 15:33:00,
2013-01-18 09:43:00,49.0,43.0,-100.00,NE,44,10.0,-999.0,79,0.00,,,-99.99,,2013-01-18 15:43:00,
2013-01-18 09:53:00,49.0,43.0,-100.00,NE,44,10.0,-999.0,79,0.00,,,-99.99,,2013-01-18 15:53:00,
2013-01-18 10:00:00,55.0,44.0,-100.00,ENE,75,8.0,-999.0,68,0.00,,,-99.99,,2013-01-18 16:00:00,
2013-01-18 10:23:00,55.0,44.0,-100.00,ENE,75,8.0,-999.0,68,0.00,,,-99.99,,2013-01-18 16:23:00,
2013-01-18 10:33:00,55.0,44.0,-100.00,ENE,75,8.0,-999.0,68,0.00,,,-99.99,,2013-01-18 16:33:00,
2013-01-18 10:42:00,55.0,44.0,-100.00,ENE,75,8.0,-999.0,68,0.00,,,-99.99,,2013-01-18 16:42:00,
2013-01-18 10:53:00,55.0,44.0,-100.00,ENE,75,8.0,-999.0,68,0.00,,,-99.99,,2013-01-18 16:53:00,
2013-01-18 11:00:00,57.0,42.0,-100.00,East,87,8.0,-999.0,56,0.00,,,-99.99,,2013-01-18 17:00:00,
2013-01-18 11:23:00,57.0,42.0,-100.00,East,87,8.0,-999.0,56,0.00,,,-99.99,,2013-01-18 17:23:00,
2013-01-18 11:33:00,57.0,42.0,-100.00,East,87,8.0,-999.0,56,0.00,,,-99.99,,2013-01-18 17:33:00,
2013-01-18 11:43:00,57.0,42.0,-100.00,East,87,8.0,-999.0,56,0.00,,,-99.99,,2013-01-18 17:43:00,
2013-01-18 11:53:00,57.0,42.0,-100.00,East,87,8.0,-999.0,56,0.00,,,-99.99,,2013-01-18 17:53:00,
2013-01-18 12:00:00,58.0,44.0,-100.00,East,92,11.0,-999.0,60,0.00,,,-99.99,,2013-01-18 18:00:00,
2013-01-18 12:23:00,58.0,44.0,-100.00,East,92,11.0,-999.0,60,0.00,,,-99.99,,2013-01-18 18:23:00,
2013-01-18 12:33:00,58.0,44.0,-100.00,East,92,11.0,-999.0,60,0.00,,,-99.99,,2013-01-18 18:33:00,
2013-01-18 12:43:00,58.0,44.0,-100.00,East,92,11.0,-999.0,60,0.00,,,-99.99,,2013-01-18 18:43:00,
2013-01-18 12:53:00,58.0,44.0,-100.00,East,92,11.0,-999.0,60,0.00,,,-99.99,,2013-01-18 18:53:00,
2013-01-18 13:00:00,58.0,44.0,-100.00,East,90,10.0,-999.0,59,0.00,,,-99.99,,2013-01-18 19:00:00,
2013-01-18 13:23:00,58.0,44.0,-100.00,East,90,10.0,-999.0,59,0.00,,,-99.99,,2013-01-18 19:23:00,
2013-01-18 13:33:00,58.0,44.0,-100.00,East,90,10.0,-999.0,59,0.00,,,-99.99,,2013-01-18 19:33:00,
2013-01-18 13:43:00,58.0,44.0,-100.00,East,90,10.0,-999.0,59,0.00,,,-99.99,,2013-01-18 19:43:00,
2013-01-18 13:53:00,58.0,44.0,-100.00,East,90,10.0,-999.0,59,0.00,,,-99.99,,2013-01-18 19:53:00,
2013-01-18 14:00:00,58.0,44.0,-100.00,East,97,9.0,-999.0,60,0.00,,,-99.99,,2013-01-18 20:00:00,
2013-01-18 14:23:00,58.0,44.0,-100.00,East,97,9.0,-999.0,60,0.00,,,-99.99,,2013-01-18 20:23:00,
2013-01-18 14:33:00,58.0,44.0,-100.00,East,97,9.0,-999.0,60,0.00,,,-99.99,,2013-01-18 20:33:00,
2013-01-18 14:43:00,58.0,44.0,-100.00,East,97,9.0,-999.0,60,0.00,,,-99.99,,2013-01-18 20:43:00,
2013-01-18 14:53:00,58.0,44.0,-100.00,East,97,9.0,-999.0,60,0.00,,,-99.99,,2013-01-18 20:53:00,
2013-01-18 15:00:00,58.0,46.0,-100.00,East,101,9.0,-999.0,64,0.00,,,-99.99,,2013-01-18 21:00:00,
2013-01-18 15:23:00,58.0,46.0,-100.00,East,101,9.0,-999.0,64,0.00,,,-99.99,,2013-01-18 21:23:00,
2013-01-18 15:33:00,58.0,46.0,-100.00,East,101,9.0,-999.0,64,0.00,,,-99.99,,2013-01-18 21:33:00,
2013-01-18 15:42:00,58.0,46.0,-100.00,East,101,9.0,-999.0,64,0.00,,,-99.99,,2013-01-18 21:42:00,
2013-01-18 15:53:00,58.0,46.0,-100.00,East,101,9.0,-999.0,64,0.00,,,-99.99,,2013-01-18 21:53:00,
2013-01-18 16:00:00,58.0,46.0,-100.00,East,100,10.0,-999.0,63,0.00,,,-99.99,,2013-01-18 22:00:00,
2013-01-18 16:23:00,58.0,46.0,-100.00,East,100,10.0,-999.0,63,0.00,,,-99.99,,2013-01-18 22:23:00,
2013-01-18 16:33:00,58.0,46.0,-100.00,East,100,10.0,-999.0,63,0.00,,,-99.99,,2013-01-18 22:33:00,
2013-01-18 16:43:00,58.0,46.0,-100.00,East,100,10.0,-999.0,63,0.00,,,-99.99,,2013-01-18 22:43:00,
2013-01-18 16:53:00,58.0,46.0,-100.00,East,100,10.0,-999.0,63,0.00,,,-99.99,,2013-01-18 22:53:00,
2013-01-18 17:00:00,58.0,47.0,-100.00,East,96,9.0,-999.0,66,0.00,,,-99.99,,2013-01-18 23:00:00,
2013-01-18 17:22:00,58.0,47.0,-100.00,East,96,9.0,-999.0,66,0.00,,,-99.99,,2013-01-18 23:22:00,
2013-01-18 17:33:00,58.0,47.0,-100.00,East,96,9.0,-999.0,66,0.00,,,-99.99,,2013-01-18 23:33:00,
2013-01-18 17:43:00,58.0,47.0,-100.00,East,96,9.0,-999.0,66,0.00,,,-99.99,,2013-01-18 23:43:00,
2013-01-18 17:53:00,58.0,47.0,-100.00,East,96,9.0,-999.0,66,0.00,,,-99.99,,2013-01-18 23:53:00,
2013-01-18 18:00:00,57.0,49.0,-100.00,East,85,9.0,-999.0,74,0.00,,,-99.99,,2013-01-19 00:00:00,
2013-01-18 18:22:00,57.0,49.0,-100.00,East,85,9.0,-999.0,74,0.00,,,-99.99,,2013-01-19 00:22:00,
2013-01-18 18:33:00,57.0,49.0,-100.00,East,85,9.0,-999.0,74,0.00,,,-99.99,,2013-01-19 00:33:00,
2013-01-18 18:43:00,57.0,49.0,-100.00,East,85,9.0,-999.0,74,0.00,,,-99.99,,2013-01-19 00:43:00,
2013-01-18 18:53:00,57.0,49.0,-100.00,East,85,9.0,-999.0,74,0.00,,,-99.99,,2013-01-19 00:53:00,
2013-01-18 19:00:00,55.0,50.0,-100.00,ENE,75,9.0,-999.0,84,0.00,,,-99.99,,2013-01-19 01:00:00,
2013-01-18 19:22:00,55.0,50.0,-100.00,ENE,75,9.0,-999.0,84,0.00,,,-99.99,,2013-01-19 01:22:00,
2013-01-18 19:33:00,55.0,50.0,-100.00,ENE,75,9.0,-999.0,84,0.00,,,-99.99,,2013-01-19 01:33:00,
2013-01-18 19:42:00,55.0,50.0,-100.00,ENE,75,9.0,-999.0,84,0.00,,,-99.99,,2013-01-19 01:42:00,
2013-01-18 19:53:00,55.0,50.0,-100.00,ENE,75,9.0,-999.0,84,0.00,,,-99.99,,2013-01-19 01:53:00,
2013-01-18 20:00:00,53.0,50.0,-100.00,ENE,60,8.0,-999.0,91,0.00,,,-99.99,,2013-01-19 02:00:00,
2013-01-18 20:22:00,53.0,50.0,-100.00,ENE,60,8.0,-999.0,91,0.00,,,-99.99,,2013-01-19 02:22:00,
2013-01-18 20:33:00,53.0,50.0,-100.00,ENE,60,8.0,-999.0,91,0.00,,,-99.99,,2013-01-19 02:33:00,
2013-01-18 20:43:00,53.0,50.0,-100.00,ENE,60,8.0,-999.0,91,0.00,,,-99.99,,2013-01-19 02:43:00,
2013-01-18 20:53:00,53.0,50.0,-100.00,ENE,60,8.0,-999.0,91,0.00,,,-99.99,,2013-01-19 02:53:00,
2013-01-18 21:00:00,52.0,50.0,-100.00,ENE,60,9.0,-999.0,93,0.00,,,-99.99,,2013-01-19 03:00:00,
2013-01-18 21:22:00,52.0,50.0,-100.00,ENE,60,9.0,-999.0,93,0.00,,,-99.99,,2013-01-19 03:22:00,
2013-01-18 21:33:00,52.0,50.0,-100.00,ENE,60,9.0,-999.0,93,0.00,,,-99.99,,2013-01-19 03:33:00,
2013-01-18 21:43:00,52.0,50.0,-100.00,ENE,60,9.0,-999.0,93,0.00,,,-99.99,,2013-01-19 03:43:00,
2013-01-18 21:53:00,52.0,50.0,-100.00,ENE,60,9.0,-999.0,93,0.00,,,-99.99,,2013-01-19 03:53:00,
2013-01-18 22:00:00,52.0,51.0,-100.00,NE,41,7.0,-999.0,97,0.00,,,-99.99,,2013-01-19 04:00:00,
2013-01-18 22:22:00,52.0,51.0,-100.00,NE,41,7.0,-999.0,97,0.00,,,-99.99,,2013-01-19 04:22:00,
2013-01-18 22:32:00,52.0,51.0,-100.00,NE,41,7.0,-999.0,97,0.00,,,-99.99,,2013-01-19 04:32:00,
2013-01-18 22:42:00,52.0,51.0,-100.00,NE,41,7.0,-999.0,97,0.00,,,-99.99,,2013-01-19 04:42:00,
2013-01-18 22:53:00,52.0,51.0,-100.00,NE,41,7.0,-999.0,97,0.00,,,-99.99,,2013-01-19 04:53:00,
2013-01-18 23:00:00,51.0,-99.9,-100.00,NNE,32,5.0,-999.0,103,0.00,,,-99.99,,2013-01-19 05:00:00,
2013-01-18 23:23:00,51.0,-99.9,-100.00,NNE,32,5.0,-999.0,103,0.00,,,-99.99,,2013-01-19 05:23:00,
2013-01-18 23:33:00,51.0,-99.9,-100.00,NNE,32,5.0,-999.0,103,0.00,,,-99.99,,2013-01-19 05:33:00,
2013-01-18 23:43:00,51.0,-99.9,-100.00,NNE,32,5.0,-999.0,103,0.00,,,-99.99,,2013-01-19 05:43:00,
2013-01-18 23:53:00,51.0,-99.9,-100.00,NNE,32,5.0,-999.0,103,0.00,,,-99.99,,2013-01-19 05:53:00,